METAR Data
IDs: Format: Raw Decoded Include TAF

Data at: 1954 UTC 17 Nov 2019

METAR for:PACD (Cold Bay Arpt, AK, US)
Text:PACD 171853Z 23014KT 10SM FEW032 BKN043 03/00 A2958 RMK AO2 SLP018 T00330000
Temperature: 3.3°C ( 38°F)
Dewpoint: 0.0°C ( 32°F) [RH = 79%]
Pressure (altimeter):29.58 inches Hg (1001.8 mb) [Sea level pressure: 1001.8 mb]
Winds:from the SW (230 degrees) at 16 MPH (14 knots; 7.2 m/s)
Visibility:10 or more sm (16+ km)
Ceiling:4300 feet AGL
Clouds: few clouds at 3200 feet AGL, broken clouds at 4300 feet AGL
Text:PACD 171753Z 23010KT 10SM FEW035 02/01 A2957 RMK AO2 RAE1657 SLP015 P0000 60009 T00220006 10028 20017 50006
Temperature: 2.2°C ( 36°F)
Dewpoint: 0.6°C ( 33°F) [RH = 89%]
Pressure (altimeter):29.57 inches Hg (1001.4 mb) [Sea level pressure: 1001.5 mb]
Winds:from the SW (230 degrees) at 12 MPH (10 knots; 5.1 m/s)
Visibility:10 or more sm (16+ km)
Ceiling:at least 12,000 feet AGL
Clouds: few clouds at 3500 feet AGL
Text:PACD 171715Z 23014KT 10SM FEW020 SCT030 02/01 A2957 RMK AO2 RAE1657 P0000 T00220006
Temperature: 2.2°C ( 36°F)
Dewpoint: 0.6°C ( 33°F) [RH = 89%]
Pressure (altimeter):29.57 inches Hg (1001.4 mb)
Winds:from the SW (230 degrees) at 16 MPH (14 knots; 7.2 m/s)
Visibility:10 or more sm (16+ km)
Ceiling:at least 12,000 feet AGL
Clouds: few clouds at 2000 feet AGL, scattered clouds at 3000 feet AGL
Text:PACD 171653Z 23010KT 10SM -RA SCT015 BKN020 OVC031 02/01 A2957 RMK AO2 RAB1555 SLP015 P0006 T00220011
Temperature: 2.2°C ( 36°F)
Dewpoint: 1.1°C ( 34°F) [RH = 92%]
Pressure (altimeter):29.57 inches Hg (1001.4 mb) [Sea level pressure: 1001.5 mb]
Winds:from the SW (230 degrees) at 12 MPH (10 knots; 5.1 m/s)
Visibility:10 or more sm (16+ km)
Ceiling:2000 feet AGL
Clouds: scattered clouds at 1500 feet AGL, broken clouds at 2000 feet AGL, overcast cloud deck at 3100 feet AGL
Weather:-RA (light rain)
Text:PACD 171620Z AUTO 24007KT 5SM RA BR BKN016 OVC027 02/01 A2957 RMK AO2 RAB1555 P0005 T00170006 TSNO
Temperature: 1.7°C ( 35°F)
Dewpoint: 0.6°C ( 33°F) [RH = 92%]
Pressure (altimeter):29.57 inches Hg (1001.4 mb)
Winds:from the WSW (240 degrees) at 8 MPH (7 knots; 3.6 m/s)
Visibility: 5 sm ( 8 km)
Ceiling:1600 feet AGL
Clouds: broken clouds at 1600 feet AGL, overcast cloud deck at 2700 feet AGL
Weather:RA BR (moderate rain, mist)
QC Flag:automated observation with no human augmentation
Text:PACD 171613Z AUTO 23011KT 5SM RA BR BKN013 BKN019 OVC028 02/01 A2957 RMK AO2 RAB1555 P0004 T00220006 TSNO
Temperature: 2.2°C ( 36°F)
Dewpoint: 0.6°C ( 33°F) [RH = 89%]
Pressure (altimeter):29.57 inches Hg (1001.4 mb)
Winds:from the SW (230 degrees) at 13 MPH (11 knots; 5.7 m/s)
Visibility: 5 sm ( 8 km)
Ceiling:1300 feet AGL
Clouds: broken clouds at 1300 feet AGL, broken clouds at 1900 feet AGL, overcast cloud deck at 2800 feet AGL
Weather:RA BR (moderate rain, mist)
QC Flag:automated observation with no human augmentation
Text:PACD 171553Z AUTO 24017KT 10SM SCT020 BKN025 OVC031 02/01 A2955 RMK AO2 RAE12B37E47 SLP008 P0001 T00220006 TSNO
Temperature: 2.2°C ( 36°F)
Dewpoint: 0.6°C ( 33°F) [RH = 89%]
Pressure (altimeter):29.55 inches Hg (1000.8 mb) [Sea level pressure: 1000.8 mb]
Winds:from the WSW (240 degrees) at 20 MPH (17 knots; 8.7 m/s)
Visibility:10 or more sm (16+ km)
Ceiling:2500 feet AGL
Clouds: scattered clouds at 2000 feet AGL, broken clouds at 2500 feet AGL, overcast cloud deck at 3100 feet AGL
QC Flag:automated observation with no human augmentation
Text:PACD 171524Z AUTO 24014KT 10SM FEW014 SCT025 BKN030 02/01 A2955 RMK AO2 RAE12 P0001 T00220006 TSNO
Temperature: 2.2°C ( 36°F)
Dewpoint: 0.6°C ( 33°F) [RH = 89%]
Pressure (altimeter):29.55 inches Hg (1000.8 mb)
Winds:from the WSW (240 degrees) at 16 MPH (14 knots; 7.2 m/s)
Visibility:10 or more sm (16+ km)
Ceiling:3000 feet AGL
Clouds: few clouds at 1400 feet AGL, scattered clouds at 2500 feet AGL, broken clouds at 3000 feet AGL
QC Flag:automated observation with no human augmentation
Text:PACD 171453Z AUTO 24012KT 10SM -RA FEW019 BKN024 OVC033 02/01 A2954 RMK AO2 RAE03B19 SLP004 P0002 60002 T00220006 51006 TSNO
Temperature: 2.2°C ( 36°F)
Dewpoint: 0.6°C ( 33°F) [RH = 89%]
Pressure (altimeter):29.54 inches Hg (1000.4 mb) [Sea level pressure: 1000.4 mb]
Winds:from the WSW (240 degrees) at 14 MPH (12 knots; 6.2 m/s)
Visibility:10 or more sm (16+ km)
Ceiling:2400 feet AGL
Clouds: few clouds at 1900 feet AGL, broken clouds at 2400 feet AGL, overcast cloud deck at 3300 feet AGL
Weather:-RA (light rain)
QC Flag:automated observation with no human augmentation

TAF for:PACD (Cold Bay Arpt, AK, US) issued at 1739 UTC 17 Nov 2019
Text:PACD 171739Z 1718/1818 23010KT P6SM -SHRA FEW015 SCT025 BKN050
Forecast period:1800 UTC 17 November 2019 to 0000 UTC 18 November 2019
Forecast type:FROM: standard forecast or significant change
Winds:from the SW (230 degrees) at 12 MPH (10 knots; 5.1 m/s)
Visibility:6 or more sm (10+ km)
Ceiling:5000 feet AGL
Clouds: few clouds at 1500 feet AGL, scattered clouds at 2500 feet AGL, broken clouds at 5000 feet AGL
Weather:-SHRA (light rain showers)
Text:FM180000 18010KT P6SM -SHRA SCT015 OVC025
Forecast period:0000 to 0400 UTC 18 November 2019
Forecast type:FROM: standard forecast or significant change
Winds:from the S (180 degrees) at 12 MPH (10 knots; 5.1 m/s)
Visibility:6 or more sm (10+ km)
Ceiling:2500 feet AGL
Clouds: scattered clouds at 1500 feet AGL, overcast cloud deck at 2500 feet AGL
Weather:-SHRA (light rain showers)
Text:FM180400 14011KT P6SM -RA SCT007 OVC015
Forecast period:0400 to 0600 UTC 18 November 2019
Forecast type:FROM: standard forecast or significant change
Winds:from the SE (140 degrees) at 13 MPH (11 knots; 5.7 m/s)
Visibility:6 or more sm (10+ km)
Ceiling:1500 feet AGL
Clouds: scattered clouds at 700 feet AGL, overcast cloud deck at 1500 feet AGL
Weather:-RA (light rain)
Text:FM180600 13016G24KT 4SM -RA BR SCT007 OVC015
Forecast period:0600 to 1800 UTC 18 November 2019
Forecast type:FROM: standard forecast or significant change
Winds:from the SE (130 degrees) at 18 MPH (16 knots; 8.2 m/s) gusting to 28 MPH (24 knots; 12.3 m/s)
Visibility: 4 sm ( 6 km)
Ceiling:1500 feet AGL
Clouds: scattered clouds at 700 feet AGL, overcast cloud deck at 1500 feet AGL
Weather:-RA BR (light rain, mist)